Time;durP1;ratioP1;P1;durP2;ratioP2;P2;SDS_P1;SDS_P2;PMS_P1;PMS_P2;Temp;Humidity;BMP_temperature;BMP_pressure;BME280_temperature;BME280_humidity;BME280_pressure;Samples;Min_cycle;Max_cycle;Signal;HPM_P1;HPM_P2
2020/12/24 00:01:50;;;;;;;101.95;66.28;;;;;;;5.62;91.05;97439.77;1790426;78;22132;-75
2020/12/24 00:04:16;;;;;;;99.13;61.48;;;;;;;5.68;90.53;97443.84;1790454;79;20896;-74
2020/12/24 00:06:42;;;;;;;91.70;58.55;;;;;;;5.70;90.28;97441.70;1790526;78;21535;-73
2020/12/24 00:09:08;;;;;;;96.80;60.67;;;;;;;5.74;90.36;97440.92;1790448;79;20905;-75
2020/12/24 00:11:34;;;;;;;88.47;56.73;;;;;;;5.81;90.21;97438.80;1790521;78;20877;-73
2020/12/24 00:13:59;;;;;;;92.92;56.77;;;;;;;5.75;89.74;97434.47;1790487;80;21440;-75
2020/12/24 00:16:25;;;;;;;86.85;56.25;;;;;;;5.71;90.37;97430.67;1790446;78;20987;-75
2020/12/24 00:18:51;;;;;;;82.12;44.10;;;;;;;5.75;90.40;97427.75;1790500;79;21004;-75
2020/12/24 00:21:17;;;;;;;97.65;54.03;;;;;;;5.82;90.20;97426.17;1790535;78;20948;-73
2020/12/24 00:23:42;;;;;;;138.70;79.75;;;;;;;5.80;90.27;97426.41;1790540;80;21051;-74
2020/12/24 00:26:08;;;;;;;86.90;39.75;;;;;;;5.87;90.39;97426.98;1790352;78;21364;-75
2020/12/24 00:28:34;;;;;;;68.15;38.73;;;;;;;5.99;90.74;97420.61;1790432;79;20992;-75
2020/12/24 00:31:00;;;;;;;70.90;39.92;;;;;;;6.08;91.10;97414.45;1790439;78;20857;-73
2020/12/24 00:33:27;;;;;;;68.65;37.05;;;;;;;6.19;91.17;97409.89;1790515;79;20960;-73
2020/12/24 00:35:53;;;;;;;78.47;47.35;;;;;;;6.29;91.28;97407.75;1790439;78;21035;-73
2020/12/24 00:38:19;;;;;;;64.32;37.48;;;;;;;6.42;91.54;97408.59;1790513;80;21367;-75
2020/12/24 00:40:44;;;;;;;76.12;39.23;;;;;;;6.55;91.54;97404.55;1790346;78;20940;-73
2020/12/24 00:43:10;;;;;;;56.40;33.05;;;;;;;6.63;91.43;97411.56;1790517;79;20853;-75
2020/12/24 00:45:36;;;;;;;62.13;32.93;;;;;;;6.70;91.39;97407.26;1790443;78;20900;-75
2020/12/24 00:48:02;;;;;;;70.78;43.00;;;;;;;6.76;91.30;97408.88;1790504;80;20993;-73
2020/12/24 00:50:28;;;;;;;89.65;45.70;;;;;;;6.82;91.10;97400.24;1790424;78;21391;-75
2020/12/24 00:52:53;;;;;;;66.20;37.35;;;;;;;6.88;91.00;97399.17;1790467;79;20869;-73
2020/12/24 00:55:19;;;;;;;80.05;39.38;;;;;;;6.92;91.08;97402.92;1790410;78;21024;-75
2020/12/24 00:57:45;;;;;;;55.38;35.08;;;;;;;6.98;90.92;97390.53;1790487;79;20944;-73
2020/12/24 01:00:11;;;;;;;57.13;33.23;;;;;;;7.00;90.84;97390.25;1790456;78;20881;-75
2020/12/24 01:02:37;;;;;;;71.55;36.55;;;;;;;7.05;90.82;97395.11;1790571;80;22173;-73
2020/12/24 01:05:05;;;;;;;113.97;50.60;;;;;;;7.12;90.77;97387.30;1790419;78;20940;-73
2020/12/24 01:07:31;;;;;;;69.70;41.83;;;;;;;7.13;90.71;97383.52;1789793;79;21142;-75
2020/12/24 01:09:57;;;;;;;69.15;35.80;;;;;;;7.13;90.80;97384.86;1763514;78;20886;-75
2020/12/24 01:12:22;;;;;;;117.97;52.20;;;;;;;7.17;90.78;97381.88;1790482;79;21011;-73
2020/12/24 01:14:48;;;;;;;85.83;43.73;;;;;;;7.16;90.58;97385.66;1790397;78;21115;-73
2020/12/24 01:17:14;;;;;;;62.20;36.03;;;;;;;7.17;90.61;97388.61;1790426;80;21364;-73
2020/12/24 01:19:42;;;;;;;56.63;34.00;;;;;;;7.15;90.44;97380.00;1790416;79;20921;-73
2020/12/24 01:22:08;;;;;;;53.75;33.98;;;;;;;7.11;90.45;97389.18;1790563;79;21591;-72
2020/12/24 01:24:34;;;;;;;53.15;32.23;;;;;;;7.10;90.48;97390.80;1790358;79;20982;-75
2020/12/24 01:27:00;;;;;;;53.20;32.08;;;;;;;7.10;90.48;97397.00;1790407;78;21404;-72
2020/12/24 01:29:26;;;;;;;186.20;73.42;;;;;;;7.03;90.21;97387.04;1790247;80;20905;-74
2020/12/24 01:31:51;;;;;;;121.67;54.38;;;;;;;6.99;90.07;97380.02;1790427;78;20933;-74
2020/12/24 01:34:18;;;;;;;49.70;24.43;;;;;;;6.98;90.26;97382.45;1790418;80;21007;-72
2020/12/24 01:36:44;;;;;;;68.20;37.90;;;;;;;7.09;90.40;97383.23;1790491;78;21087;-74
2020/12/24 01:39:10;;;;;;;48.02;30.17;;;;;;;7.13;90.46;97376.23;1790458;80;21375;-74
2020/12/24 01:41:35;;;;;;;48.30;28.73;;;;;;;7.17;90.55;97384.57;1790332;78;21007;-74
2020/12/24 01:44:01;;;;;;;46.60;27.98;;;;;;;7.21;90.55;97390.50;1790388;79;20882;-72
2020/12/24 01:46:27;;;;;;;46.15;27.93;;;;;;;7.25;90.53;97379.43;1790348;78;20949;-72
2020/12/24 01:48:53;;;;;;;42.25;26.52;;;;;;;7.27;90.46;97379.98;1790444;80;22058;-72
2020/12/24 01:51:30;;;;;;;40.83;26.97;;;;;;;7.30;90.33;97381.31;1790446;78;21428;-74
2020/12/24 01:53:59;;;;;;;49.45;27.77;;;;;;;7.29;90.23;97380.52;1790332;80;21091;-73
2020/12/24 01:56:25;;;;;;;50.67;32.70;;;;;;;7.29;90.22;97372.42;1790512;78;21138;-72
2020/12/24 01:58:51;;;;;;;43.33;26.65;;;;;;;7.31;90.31;97374.30;1790451;79;21667;-73
2020/12/24 02:01:18;;;;;;;41.58;25.95;;;;;;;7.35;90.17;97371.88;1790421;78;21154;-72
2020/12/24 02:03:43;;;;;;;51.37;29.57;;;;;;;7.30;89.90;97373.23;1790418;79;21632;-71
2020/12/24 02:06:10;;;;;;;50.25;30.20;;;;;;;7.30;90.10;97372.69;1790317;78;20937;-74
2020/12/24 02:08:36;;;;;;;40.63;27.30;;;;;;;7.33;90.13;97366.74;1763603;80;21218;-72
2020/12/24 02:11:01;;;;;;;47.25;27.17;;;;;;;7.38;90.19;97363.23;1790311;78;21554;-73
2020/12/24 02:13:27;;;;;;;31.77;19.35;;;;;;;7.39;90.12;97349.22;1790529;79;21009;-72
2020/12/24 02:15:53;;;;;;;35.98;21.00;;;;;;;7.56;90.76;97346.99;1790384;78;22083;-72
2020/12/24 02:18:20;;;;;;;61.55;32.53;;;;;;;7.73;90.50;97342.06;1790420;80;21269;-71
2020/12/24 02:20:46;;;;;;;134.63;44.33;;;;;;;7.79;90.17;97332.86;1790355;78;21047;-71
2020/12/24 02:23:12;;;;;;;226.75;81.97;;;;;;;7.88;90.19;97319.05;1790428;79;20968;-72
2020/12/24 02:25:40;;;;;;;73.22;35.75;;;;;;;8.01;90.16;97311.41;1790286;78;20912;-73
2020/12/24 02:28:06;;;;;;;52.93;34.20;;;;;;;8.05;90.24;97312.48;1790362;79;21301;-72
2020/12/24 02:30:32;;;;;;;39.20;24.12;;;;;;;8.07;90.08;97321.89;1790287;78;21048;-73
2020/12/24 02:32:58;;;;;;;25.77;17.80;;;;;;;8.05;89.83;97318.68;1790444;79;21011;-75
2020/12/24 02:35:23;;;;;;;25.30;16.02;;;;;;;8.08;89.94;97324.05;1790289;78;20992;-73
2020/12/24 02:37:50;;;;;;;26.85;14.03;;;;;;;8.11;89.97;97319.43;1790450;80;21019;-74
2020/12/24 02:40:16;;;;;;;19.35;12.53;;;;;;;8.15;90.05;97343.44;1790352;78;21239;-74
2020/12/24 02:42:42;;;;;;;16.42;12.30;;;;;;;8.17;89.88;97350.70;1790338;79;20968;-75
2020/12/24 02:45:08;;;;;;;25.88;13.45;;;;;;;8.20;89.94;97345.57;1790299;78;21019;-75
2020/12/24 02:47:36;;;;;;;17.75;11.15;;;;;;;8.20;89.74;97357.72;1763404;80;21027;-73
2020/12/24 02:50:03;;;;;;;14.93;8.93;;;;;;;8.24;89.71;97344.45;1790307;78;21294;-75
2020/12/24 02:52:28;;;;;;;13.38;8.78;;;;;;;8.26;89.67;97336.07;1790375;79;21163;-73
2020/12/24 02:54:54;;;;;;;8.13;5.70;;;;;;;8.30;89.79;97332.55;1790208;78;21711;-73
2020/12/24 02:57:20;;;;;;;8.05;3.70;;;;;;;8.39;89.87;97327.38;1790389;80;20932;-73
2020/12/24 02:59:46;;;;;;;4.90;3.60;;;;;;;8.46;89.86;97341.36;1790311;78;20936;-73
2020/12/24 03:02:12;;;;;;;5.72;2.75;;;;;;;8.60;89.91;97341.50;1790383;79;21050;-75
2020/12/24 03:04:37;;;;;;;5.60;2.50;;;;;;;8.75;89.92;97349.48;1790407;79;21371;-75
2020/12/24 03:07:03;;;;;;;5.60;3.83;;;;;;;8.89;89.58;97365.84;1790263;78;20897;-75
2020/12/24 03:09:29;;;;;;;4.45;1.95;;;;;;;9.08;88.75;97376.20;1790358;79;21012;-75
2020/12/24 03:11:55;;;;;;;4.17;2.72;;;;;;;9.33;88.39;97357.56;1790265;78;20960;-75
2020/12/24 03:17:02;;;;;;;6.92;2.85;;;;;;;9.60;87.03;97363.73;1800493;78;22795;-73
2020/12/24 03:19:28;;;;;;;4.17;2.77;;;;;;;9.58;86.88;97362.67;1776324;80;20905;-72
2020/12/24 03:21:54;;;;;;;4.22;2.98;;;;;;;9.64;87.10;97362.05;1776203;80;21256;-73
2020/12/24 03:24:20;;;;;;;4.83;3.17;;;;;;;9.64;86.92;97362.59;1776160;80;21499;-73
2020/12/24 03:26:45;;;;;;;6.25;5.00;;;;;;;9.63;86.75;97356.93;1776217;80;20951;-73
2020/12/24 03:29:11;;;;;;;3.90;2.60;;;;;;;9.60;85.87;97358.33;1776224;80;21055;-73
2020/12/24 03:31:37;;;;;;;4.72;3.40;;;;;;;9.59;86.27;97361.58;1776188;80;20916;-75
2020/12/24 03:34:03;;;;;;;4.58;3.00;;;;;;;9.58;86.22;97358.62;1776218;80;21182;-75
2020/12/24 03:36:29;;;;;;;4.15;3.10;;;;;;;9.60;86.08;97362.38;1776085;80;20983;-75
2020/12/24 03:38:54;;;;;;;4.65;3.10;;;;;;;9.64;85.18;97346.37;1776275;80;21011;-73
2020/12/24 03:41:20;;;;;;;3.70;2.75;;;;;;;9.66;85.58;97351.77;1776187;80;20869;-74
2020/12/24 03:43:46;;;;;;;5.03;3.45;;;;;;;9.75;84.06;97337.84;1776242;80;21106;-73
2020/12/24 03:46:12;;;;;;;4.78;3.25;;;;;;;9.76;84.72;97333.23;1776171;80;21232;-73
2020/12/24 03:48:37;;;;;;;7.00;3.90;;;;;;;9.80;84.46;97331.55;1776170;80;20967;-75
2020/12/24 03:51:03;;;;;;;5.90;4.47;;;;;;;9.79;84.42;97325.89;1776129;80;20908;-75
2020/12/24 03:53:29;;;;;;;7.35;4.53;;;;;;;9.76;84.60;97321.06;1776241;80;21122;-75
2020/12/24 03:55:55;;;;;;;6.12;4.55;;;;;;;9.72;84.87;97317.31;1776197;80;20928;-74
2020/12/24 03:58:21;;;;;;;5.20;4.00;;;;;;;9.67;84.06;97315.50;1776225;80;21338;-74
2020/12/24 04:00:46;;;;;;;3.83;3.05;;;;;;;9.69;83.46;97330.89;1776043;80;20995;-75
2020/12/24 04:03:12;;;;;;;5.05;3.75;;;;;;;9.71;84.13;97334.09;1776187;80;21117;-74
2020/12/24 04:05:38;;;;;;;8.18;4.25;;;;;;;9.68;84.14;97330.63;1776149;80;20932;-74
2020/12/24 04:08:06;;;;;;;4.97;3.75;;;;;;;9.66;83.95;97332.03;1776159;80;21631;-74
2020/12/24 04:10:32;;;;;;;14.90;8.25;;;;;;;9.69;83.60;97311.14;1776015;80;21559;-75
2020/12/24 04:15:40;;;;;;;4.60;3.37;;;;;;;9.73;82.82;97302.69;1823468;78;22623;-73
2020/12/24 04:18:06;;;;;;;6.90;4.50;;;;;;;9.70;83.40;97303.28;1777378;80;21406;-73
2020/12/24 04:20:32;;;;;;;6.87;4.10;;;;;;;9.71;82.83;97303.53;1777327;79;21050;-74
2020/12/24 04:22:58;;;;;;;4.22;2.20;;;;;;;9.66;83.22;97291.45;1777296;80;20889;-73
2020/12/24 04:25:23;;;;;;;5.83;3.90;;;;;;;9.68;82.12;97276.53;1747038;80;21514;-73
2020/12/24 04:27:49;;;;;;;7.22;4.00;;;;;;;9.64;82.48;97284.95;1777371;80;20885;-73
2020/12/24 04:30:15;;;;;;;6.37;4.37;;;;;;;9.62;82.86;97279.03;1777346;79;21510;-74
2020/12/24 04:32:41;;;;;;;6.28;3.52;;;;;;;9.60;83.13;97279.88;1777380;80;22165;-74
2020/12/24 04:35:06;;;;;;;5.25;3.92;;;;;;;9.58;82.92;97279.37;1777184;79;21546;-73
2020/12/24 04:37:32;;;;;;;4.17;3.02;;;;;;;9.52;83.43;97286.74;1777346;80;20952;-73
2020/12/24 04:39:58;;;;;;;6.67;4.95;;;;;;;9.51;83.31;97283.78;1777210;79;21018;-73
2020/12/24 04:42:24;;;;;;;5.97;3.50;;;;;;;9.53;83.68;97290.25;1777385;80;20932;-74
2020/12/24 04:44:50;;;;;;;6.28;3.40;;;;;;;9.51;83.67;97293.25;1777266;79;20987;-74
2020/12/24 04:47:19;;;;;;;4.45;3.30;;;;;;;9.38;83.81;97287.19;1737550;80;21158;-73
2020/12/24 04:49:46;;;;;;;6.33;4.25;;;;;;;9.38;83.81;97287.19;1777284;79;21091;-72
2020/12/24 04:52:14;;;;;;;7.72;4.92;;;;;;;9.31;83.09;97287.56;1777199;80;21154;-74
2020/12/24 04:54:40;;;;;;;9.83;6.20;;;;;;;9.11;83.35;97283.72;1777195;80;21154;-74
2020/12/24 04:57:09;;;;;;;11.08;6.80;;;;;;;8.96;83.25;97283.34;1777314;80;22829;-72
2020/12/24 04:59:36;;;;;;;13.43;7.85;;;;;;;8.83;83.50;97276.47;1777168;80;21122;-72
2020/12/24 05:02:02;;;;;;;12.33;6.72;;;;;;;8.68;83.87;97280.93;1777190;79;21186;-73
2020/12/24 05:04:29;;;;;;;11.12;5.50;;;;;;;8.68;83.87;97280.93;1777201;80;21480;-74
2020/12/24 05:07:06;;;;;;;9.18;5.83;;;;;;;8.82;84.23;97271.62;1777305;79;21106;-72
2020/12/24 05:09:32;;;;;;;6.12;4.28;;;;;;;8.82;84.23;97271.62;1776779;80;21264;-72
2020/12/24 05:11:58;;;;;;;5.60;3.65;;;;;;;8.89;84.19;97272.09;1777230;79;21027;-72
2020/12/24 05:14:26;;;;;;;7.20;4.55;;;;;;;8.88;84.08;97266.95;1773199;80;21614;-74
2020/12/24 05:17:05;;;;;;;9.10;5.03;;;;;;;8.81;83.98;97266.51;1766506;79;21191;-72
2020/12/24 05:19:33;;;;;;;5.10;3.52;;;;;;;8.81;83.98;97266.51;1766705;81;21138;-74
2020/12/24 05:22:17;;;;;;;8.20;4.10;;;;;;;8.75;84.01;97257.09;1766594;79;21098;-73
2020/12/24 05:24:43;;;;;;;5.78;3.92;;;;;;;8.73;83.83;97247.67;1748108;79;21115;-74
2020/12/24 05:27:15;;;;;;;7.05;3.92;;;;;;;8.76;84.01;97239.79;1765948;81;21683;-74
2020/12/24 05:29:45;;;;;;;4.72;3.45;;;;;;;8.83;83.71;97235.41;1765977;81;21036;-74
2020/12/24 05:32:11;;;;;;;6.65;3.17;;;;;;;8.98;83.70;97239.29;1766035;80;21190;-73
2020/12/24 05:34:37;;;;;;;5.75;3.58;;;;;;;8.98;83.70;97239.29;1765941;80;21455;-74
2020/12/24 05:37:16;;;;;;;4.87;3.42;;;;;;;9.04;83.64;97238.66;1765930;79;20885;-74
2020/12/24 05:39:47;;;;;;;4.37;3.22;;;;;;;9.07;83.51;97239.46;1765926;79;21147;-72
2020/12/24 05:42:13;;;;;;;5.80;3.92;;;;;;;9.10;83.62;97242.92;1766001;81;21147;-72
2020/12/24 05:44:38;;;;;;;5.92;3.85;;;;;;;9.12;82.93;97229.92;1765947;81;21076;-72
2020/12/24 05:47:04;;;;;;;5.67;3.77;;;;;;;9.20;82.78;97232.53;1766028;79;21161;-74
2020/12/24 05:49:30;;;;;;;6.60;4.33;;;;;;;9.23;82.86;97229.27;1765863;81;21538;-72
2020/12/24 05:51:59;;;;;;;4.47;3.65;;;;;;;9.21;82.83;97231.44;1765951;79;20862;-72
2020/12/24 05:54:26;;;;;;;7.10;3.80;;;;;;;9.17;82.98;97236.63;1766085;80;21543;-73
2020/12/24 05:56:54;;;;;;;6.28;4.15;;;;;;;9.15;83.09;97239.38;1766029;79;21508;-73
2020/12/24 05:59:25;;;;;;;5.70;4.17;;;;;;;9.08;83.13;97234.86;1766008;80;21186;-73
2020/12/24 06:02:11;;;;;;;6.92;4.00;;;;;;;9.09;83.26;97237.81;1765931;79;21095;-74
2020/12/24 06:04:49;;;;;;;7.80;4.20;;;;;;;9.06;83.62;97244.61;1765987;81;21048;-73
2020/12/24 06:07:22;;;;;;;5.70;4.33;;;;;;;8.97;83.51;97269.28;1766012;80;21130;-75
2020/12/24 06:09:49;;;;;;;6.42;4.50;;;;;;;8.97;83.51;97269.28;1766088;79;21111;-75
2020/12/24 06:12:21;;;;;;;15.23;8.38;;;;;;;8.94;83.62;97272.56;1766001;80;22046;-75
2020/12/24 06:14:50;;;;;;;41.65;35.73;;;;;;;8.94;83.62;97272.56;1765832;79;21480;-74
2020/12/24 06:17:19;;;;;;;24.12;18.90;;;;;;;8.90;83.34;97268.84;1765326;81;21555;-75
2020/12/24 06:19:45;;;;;;;17.37;13.20;;;;;;;8.76;83.25;97279.51;1766067;79;21139;-75
2020/12/24 06:22:10;;;;;;;11.97;8.53;;;;;;;8.68;83.28;97279.58;1766005;81;21145;-75
2020/12/24 06:24:58;;;;;;;51.15;26.62;;;;;;;8.61;83.24;97283.70;1765926;80;21861;-75
2020/12/24 06:27:37;;;;;;;40.70;23.30;;;;;;;8.57;83.38;97278.63;1765958;81;21151;-73
2020/12/24 06:30:15;;;;;;;23.45;12.95;;;;;;;8.50;83.32;97291.09;1765982;79;21226;-73
2020/12/24 06:32:43;;;;;;;13.60;7.53;;;;;;;8.46;83.49;97273.87;1766008;80;21139;-73
2020/12/24 06:35:09;;;;;;;7.62;3.90;;;;;;;8.48;83.60;97271.68;1765711;79;21071;-73
2020/12/24 06:37:41;;;;;;;7.87;5.20;;;;;;;8.56;83.71;97280.52;1766056;80;21377;-74
2020/12/24 06:40:09;;;;;;;7.40;5.75;;;;;;;8.68;83.65;97270.67;1765841;79;21091;-73
2020/12/24 06:42:42;;;;;;;11.10;6.47;;;;;;;8.81;83.48;97267.86;1766077;81;21115;-74
2020/12/24 06:45:21;;;;;;;9.50;6.62;;;;;;;8.92;83.19;97264.75;1765920;79;21036;-72
2020/12/24 06:48:15;;;;;;;8.43;6.55;;;;;;;8.99;83.15;97275.22;1765996;81;21123;-73
2020/12/24 06:50:50;;;;;;;7.37;5.30;;;;;;;9.02;82.45;97274.64;1765930;81;21492;-74
2020/12/24 06:53:28;;;;;;;6.60;4.75;;;;;;;9.05;82.29;97272.70;1765539;81;21115;-74
2020/12/24 06:56:19;;;;;;;11.57;6.15;;;;;;;9.09;82.24;97276.45;1766054;79;26667;-73
2020/12/24 06:59:03;;;;;;;9.80;7.42;;;;;;;9.10;82.49;97278.61;1765998;80;20985;-73
2020/12/24 07:01:35;;;;;;;8.40;5.95;;;;;;;9.04;82.45;97264.34;1766033;79;21051;-73
2020/12/24 07:04:04;;;;;;;6.50;4.60;;;;;;;9.09;82.71;97267.00;1766006;80;22318;-72
2020/12/24 07:06:49;;;;;;;11.43;7.10;;;;;;;9.12;82.23;97278.57;1766077;79;21028;-73
2020/12/24 07:09:29;;;;;;;10.80;6.83;;;;;;;9.11;82.21;97272.11;1766014;80;21148;-72
2020/12/24 07:11:55;;;;;;;23.20;14.05;;;;;;;9.08;82.55;97269.44;1766058;79;21115;-73
2020/12/24 07:14:31;;;;;;;26.50;23.38;;;;;;;9.09;82.22;97264.84;1765933;81;21090;-74
2020/12/24 07:17:14;;;;;;;24.15;17.98;;;;;;;9.11;82.45;97280.22;1765971;79;21453;-73
2020/12/24 07:19:46;;;;;;;10.13;8.55;;;;;;;9.10;81.26;97276.70;1747209;81;21064;-72
2020/12/24 07:22:16;;;;;;;14.85;10.93;;;;;;;9.10;81.26;97276.70;1765954;80;21560;-73
2020/12/24 07:24:56;;;;;;;14.53;10.03;;;;;;;9.14;82.32;97268.27;1765539;79;21115;-73
2020/12/24 07:27:21;;;;;;;28.07;15.98;;;;;;;9.15;82.19;97276.66;1766008;81;21115;-72
2020/12/24 07:29:47;;;;;;;18.95;10.10;;;;;;;9.16;82.31;97269.36;1765840;79;21567;-73
2020/12/24 07:32:13;;;;;;;17.95;11.15;;;;;;;9.16;82.15;97255.30;1765919;80;20900;-72
2020/12/24 07:34:39;;;;;;;12.95;8.18;;;;;;;9.17;82.13;97258.80;1765779;81;21487;-73
2020/12/24 07:37:05;;;;;;;14.75;12.20;;;;;;;9.10;81.68;97258.34;1765886;79;20932;-72
2020/12/24 07:39:31;;;;;;;28.38;21.57;;;;;;;9.06;82.09;97258.13;1765945;81;20997;-73
2020/12/24 07:42:00;;;;;;;23.60;15.90;;;;;;;9.05;82.13;97269.45;1765916;79;21317;-72
2020/12/24 07:44:25;;;;;;;17.62;12.82;;;;;;;9.00;82.07;97263.32;1765930;81;21520;-72
2020/12/24 07:46:52;;;;;;;14.58;7.08;;;;;;;8.89;82.55;97261.28;1765911;79;20956;-74
2020/12/24 07:49:19;;;;;;;11.73;7.67;;;;;;;8.88;82.71;97258.84;1765782;81;21195;-72
2020/12/24 07:51:54;;;;;;;12.07;7.67;;;;;;;8.75;83.47;97264.39;1765951;80;21545;-74
2020/12/24 07:54:24;;;;;;;30.15;24.52;;;;;;;8.79;83.37;97256.51;1765862;80;21128;-75
2020/12/24 07:56:51;;;;;;;12.23;9.23;;;;;;;8.82;83.45;97261.36;1765933;79;21036;-73
2020/12/24 07:59:16;;;;;;;21.10;13.75;;;;;;;8.82;83.64;97255.95;1765919;81;21201;-75
2020/12/24 08:01:42;;;;;;;62.58;38.38;;;;;;;8.86;83.54;97249.67;1765897;79;20912;-75
2020/12/24 08:04:08;;;;;;;39.98;22.80;;;;;;;8.82;83.80;97242.45;1765968;80;21068;-75
2020/12/24 08:06:34;;;;;;;23.60;14.07;;;;;;;8.76;83.94;97248.44;1765918;79;21193;-73
2020/12/24 08:09:17;;;;;;;15.88;11.45;;;;;;;8.94;83.51;97245.55;1765811;80;21163;-74
2020/12/24 08:11:54;;;;;;;23.27;15.53;;;;;;;8.94;83.51;97245.55;1765862;79;21122;-74
2020/12/24 08:14:24;;;;;;;19.75;12.45;;;;;;;8.97;83.34;97238.20;1765846;80;21577;-74
2020/12/24 08:16:51;;;;;;;21.25;14.98;;;;;;;8.94;83.29;97243.64;1765854;79;21008;-72
2020/12/24 08:19:31;;;;;;;16.77;11.88;;;;;;;9.00;83.79;97245.20;1765883;80;22189;-74
2020/12/24 08:22:05;;;;;;;38.28;24.52;;;;;;;9.00;83.49;97242.50;1765900;79;21028;-74
2020/12/24 08:24:31;;;;;;;82.55;55.83;;;;;;;9.00;83.49;97242.50;1765895;81;21092;-73
2020/12/24 08:26:58;;;;;;;37.28;26.17;;;;;;;8.99;83.48;97241.45;1765870;79;20857;-73
2020/12/24 08:29:23;;;;;;;19.40;14.58;;;;;;;8.88;83.71;97242.09;1744763;81;21166;-74
2020/12/24 08:31:50;;;;;;;21.97;13.90;;;;;;;8.91;83.96;97240.73;1765825;79;21179;-75
2020/12/24 08:34:16;;;;;;;15.90;11.30;;;;;;;8.95;84.04;97252.01;1765767;80;21206;-74
2020/12/24 08:36:47;;;;;;;19.55;16.95;;;;;;;9.05;84.10;97238.38;1765833;79;21163;-73
2020/12/24 08:39:15;;;;;;;19.52;13.75;;;;;;;9.05;84.10;97238.38;1765833;81;21146;-72
2020/12/24 08:41:56;;;;;;;11.55;8.10;;;;;;;9.08;83.69;97241.06;1765891;79;21020;-74
2020/12/24 08:44:22;;;;;;;8.70;6.22;;;;;;;9.08;83.90;97231.61;1746003;81;21157;-75
2020/12/24 08:47:10;;;;;;;10.18;6.45;;;;;;;9.04;83.98;97224.60;1765727;79;21453;-74
2020/12/24 08:49:41;;;;;;;20.00;10.03;;;;;;;9.10;83.90;97231.31;1766055;80;21135;-74
2020/12/24 08:52:18;;;;;;;130.85;62.25;;;;;;;9.05;84.02;97223.51;1765832;80;21091;-75
2020/12/24 08:55:07;;;;;;;190.97;99.77;;;;;;;9.08;84.31;97235.66;1765675;80;21134;-72
2020/12/24 08:57:34;;;;;;;48.35;29.70;;;;;;;9.08;84.31;97235.66;1765869;81;21212;-73
2020/12/24 09:00:05;;;;;;;40.63;21.48;;;;;;;9.01;84.60;97242.76;1765745;79;21217;-75
2020/12/24 09:02:33;;;;;;;60.33;33.78;;;;;;;9.04;84.47;97238.66;1766064;80;21548;-72
2020/12/24 09:05:00;;;;;;;16.02;9.78;;;;;;;9.08;84.47;97239.72;1765923;79;21119;-74
2020/12/24 09:07:29;;;;;;;28.02;15.53;;;;;;;9.09;84.46;97238.62;1766019;81;21107;-72
2020/12/24 09:10:13;;;;;;;142.85;59.85;;;;;;;9.17;84.51;97250.69;1765990;79;21553;-75
2020/12/24 09:12:42;;;;;;;202.18;98.55;;;;;;;9.21;84.37;97241.70;1765924;81;21528;-73
2020/12/24 09:15:13;;;;;;;93.72;50.43;;;;;;;9.21;84.37;97241.70;1765636;79;21313;-75
2020/12/24 09:17:50;;;;;;;35.85;20.77;;;;;;;9.21;84.32;97249.81;1766006;81;21119;-73
2020/12/24 09:20:26;;;;;;;18.67;11.80;;;;;;;9.11;84.14;97240.48;1765960;79;21032;-72
2020/12/24 09:22:58;;;;;;;29.25;19.85;;;;;;;9.13;84.16;97244.23;1743763;81;21638;-73
2020/12/24 09:25:39;;;;;;;32.08;23.80;;;;;;;9.09;84.27;97235.11;1765964;79;21556;-74
2020/12/24 09:28:24;;;;;;;21.15;16.20;;;;;;;9.12;84.29;97246.69;1766088;81;21147;-74
2020/12/24 09:30:54;;;;;;;20.72;17.30;;;;;;;9.10;84.42;97250.23;1766002;79;21060;-76
2020/12/24 09:33:20;;;;;;;12.95;9.75;;;;;;;9.10;84.42;97250.23;1765093;81;21079;-76
2020/12/24 09:35:45;;;;;;;65.90;54.15;;;;;;;9.08;84.49;97250.52;1766067;79;21297;-76
2020/12/24 09:38:11;;;;;;;35.98;28.62;;;;;;;9.08;84.58;97249.17;1766111;80;20889;-76
2020/12/24 09:40:40;;;;;;;25.65;20.65;;;;;;;9.08;84.49;97249.17;1766030;79;20932;-76
2020/12/24 09:43:07;;;;;;;14.03;10.63;;;;;;;9.09;84.67;97252.68;1766083;81;21128;-74
2020/12/24 09:45:33;;;;;;;16.82;12.33;;;;;;;9.09;84.79;97256.19;1765960;79;21096;-73
2020/12/24 09:47:59;;;;;;;15.58;11.80;;;;;;;9.11;84.94;97243.18;1765953;80;21237;-72
2020/12/24 09:50:24;;;;;;;18.55;14.00;;;;;;;9.11;84.94;97243.18;1765908;79;20893;-72
2020/12/24 09:52:50;;;;;;;16.97;14.03;;;;;;;9.12;84.59;97252.89;1765985;81;21015;-74
2020/12/24 09:55:16;;;;;;;23.92;18.50;;;;;;;9.12;84.68;97251.55;1765861;79;20945;-72
2020/12/24 09:57:42;;;;;;;25.85;20.17;;;;;;;9.15;84.74;97255.59;1766017;81;20889;-74
2020/12/24 10:00:09;;;;;;;11.18;7.87;;;;;;;9.18;84.82;97250.40;1744526;81;22170;-72
2020/12/24 10:02:36;;;;;;;12.13;8.18;;;;;;;9.16;84.37;97243.13;1765914;80;21607;-74
2020/12/24 10:05:02;;;;;;;20.90;13.03;;;;;;;9.17;84.53;97251.50;1765936;79;21322;-72
2020/12/24 10:07:28;;;;;;;22.55;15.98;;;;;;;9.17;84.55;97252.84;1765912;80;21214;-72
2020/12/24 10:09:54;;;;;;;22.70;16.97;;;;;;;9.13;84.41;97243.69;1765938;79;20897;-72
2020/12/24 10:12:25;;;;;;;17.00;11.63;;;;;;;9.10;84.43;97254.28;1765870;81;22111;-72
2020/12/24 10:14:51;;;;;;;18.25;12.35;;;;;;;9.04;84.46;97253.53;1765865;79;21147;-73
2020/12/24 10:17:17;;;;;;;13.43;9.38;;;;;;;9.00;84.41;97249.26;1765907;80;20939;-74
2020/12/24 10:19:43;;;;;;;14.43;10.18;;;;;;;8.99;84.53;97246.30;1765978;79;20976;-73
2020/12/24 10:22:10;;;;;;;14.95;9.90;;;;;;;8.92;84.72;97233.68;1766016;81;21031;-75
2020/12/24 10:24:38;;;;;;;15.35;9.58;;;;;;;8.92;84.72;97233.68;1744569;81;21186;-73
2020/12/24 10:27:04;;;;;;;23.85;16.87;;;;;;;8.92;84.80;97230.98;1765860;80;21107;-75
2020/12/24 10:29:30;;;;;;;28.92;18.75;;;;;;;8.95;84.95;97231.73;1765971;80;21111;-74
2020/12/24 10:31:56;;;;;;;27.27;16.75;;;;;;;8.90;84.89;97226.96;1765878;79;21539;-75
2020/12/24 10:34:22;;;;;;;16.05;10.00;;;;;;;8.89;84.91;97217.25;1765973;81;20997;-75
2020/12/24 10:36:48;;;;;;;51.92;28.07;;;;;;;8.90;84.91;97227.77;1734983;81;21425;-72
2020/12/24 10:39:13;;;;;;;35.03;19.92;;;;;;;8.89;84.91;97222.11;1765890;81;20904;-73
2020/12/24 10:41:40;;;;;;;46.28;31.70;;;;;;;8.87;84.97;97227.52;1765866;79;20893;-72
2020/12/24 10:44:06;;;;;;;40.33;25.55;;;;;;;8.89;85.00;97228.06;1765900;81;21214;-72
2020/12/24 10:46:32;;;;;;;66.55;37.42;;;;;;;8.83;84.51;97225.14;1765896;79;21114;-75
2020/12/24 10:48:58;;;;;;;35.13;24.00;;;;;;;8.74;84.89;97222.27;1744434;81;21191;-72
2020/12/24 10:51:24;;;;;;;27.25;21.20;;;;;;;8.69;84.83;97230.41;1765909;79;20964;-72
2020/12/24 10:53:50;;;;;;;30.62;21.62;;;;;;;8.66;85.25;97223.70;1765947;81;21117;-73
2020/12/24 10:56:15;;;;;;;26.65;19.05;;;;;;;8.67;85.10;97225.30;1765938;79;20925;-73
2020/12/24 10:58:42;;;;;;;28.27;16.75;;;;;;;8.71;85.34;97219.58;1765973;81;20993;-75
2020/12/24 11:01:18;;;;;;;15.68;10.40;;;;;;;8.70;85.22;97213.11;1765924;79;21337;-72
2020/12/24 11:03:44;;;;;;;15.80;11.83;;;;;;;8.72;85.29;97209.06;1765926;81;21619;-72
2020/12/24 11:06:22;;;;;;;22.30;17.80;;;;;;;8.76;85.38;97203.87;1765902;79;21024;-72
2020/12/24 11:08:49;;;;;;;27.03;21.10;;;;;;;8.76;85.33;97202.52;1766235;81;21079;-74
2020/12/24 11:11:15;;;;;;;20.25;16.55;;;;;;;8.71;85.31;97193.11;1710968;81;21547;-72
2020/12/24 11:13:43;;;;;;;20.95;17.23;;;;;;;8.76;85.44;97195.77;1765967;80;21434;-74
2020/12/24 11:16:10;;;;;;;24.60;18.32;;;;;;;8.76;85.31;97190.37;1764875;79;21060;-76
2020/12/24 11:18:38;;;;;;;37.78;26.48;;;;;;;8.72;85.29;97184.75;1765893;80;21084;-73
2020/12/24 11:21:04;;;;;;;27.20;19.82;;;;;;;8.72;85.20;97190.70;1765804;79;21123;-73
2020/12/24 11:23:31;;;;;;;20.30;14.60;;;;;;;8.66;85.22;97187.23;1765894;81;21591;-74
2020/12/24 11:25:57;;;;;;;17.75;13.28;;;;;;;8.68;85.16;97178.84;1765853;79;21455;-73
2020/12/24 11:28:22;;;;;;;18.10;12.15;;;;;;;8.66;85.03;97175.63;1765871;81;21267;-73
2020/12/24 11:30:48;;;;;;;20.55;11.35;;;;;;;8.66;85.10;97176.98;1765896;79;21483;-74
2020/12/24 11:33:14;;;;;;;18.12;10.32;;;;;;;8.69;85.25;97173.70;1765890;81;20920;-75
2020/12/24 11:35:40;;;;;;;27.32;16.02;;;;;;;8.68;85.32;97175.59;1765816;79;20996;-74
2020/12/24 11:38:06;;;;;;;125.75;66.65;;;;;;;8.70;85.36;97170.70;1765940;80;21164;-75
2020/12/24 11:40:31;;;;;;;70.85;40.00;;;;;;;8.71;85.39;97162.86;1765835;79;20940;-75
2020/12/24 11:42:57;;;;;;;74.70;44.33;;;;;;;8.72;85.29;97163.14;1765839;80;20889;-73